Lakeway's Hourly Summary for Saturday, March 18, 2017
Hour Temp
(f)
RH
(%)
Solar Rad.
(MJ/m2)
Rainfall
(in)
Wind
(mph)
3/18/2017 12:00 AM 66 99 0 0 3.2
3/18/2017 1:00 AM 64 100 0 0 1.98
3/18/2017 2:00 AM 63 100 0 0 2.23
3/18/2017 3:00 AM 62 100 0 0 1.46
3/18/2017 4:00 AM 61 100 0 0 0.06
3/18/2017 5:00 AM 61 100 0 0 0.12
3/18/2017 6:00 AM 61 100 0 0 0.05
3/18/2017 7:00 AM 61 100 0 0 0.49
3/18/2017 8:00 AM 61 100 0.01 0 0.38
3/18/2017 9:00 AM 62 100 0.2 0 0.12
3/18/2017 10:00 AM 64 100 0.49 0 0.43
3/18/2017 11:00 AM 66 100 0.69 0 0.91
3/18/2017 12:00 PM 69 87 0.98 0 1.18
3/18/2017 1:00 PM 72 69 1.79 0 1.55
3/18/2017 2:00 PM 76 59 2.51 0 2.39
3/18/2017 3:00 PM 77 51 1.35 0 1.9
3/18/2017 4:00 PM 79 47 1.93 0 1.71
3/18/2017 5:00 PM 80 46 1.89 0 1.96
3/18/2017 6:00 PM 80 45 1.27 0 1.61
3/18/2017 7:00 PM 78 50 0.57 0 1.73
3/18/2017 8:00 PM 75 55 0.06 0 1.5
3/18/2017 9:00 PM 73 64 0 0 0.65
3/18/2017 10:00 PM 72 66 0 0 1.58
3/18/2017 11:00 PM 70 78 0 0 2.21
Data Summary 68 79 13.74 0.00 1.31